createdAt,value
2023-01-01T00:01:10.477Z,76.44
2023-01-01T00:03:39.430Z,75.72
2023-01-01T00:06:07.900Z,76.24
2023-01-01T00:08:37.069Z,75.55
2023-01-01T00:11:05.749Z,74.66
2023-01-01T00:13:33.676Z,75.64
2023-01-01T00:16:05.700Z,75.06
2023-01-01T00:18:33.347Z,74.48
2023-01-01T00:21:05.179Z,75.61
2023-01-01T00:23:32.972Z,75.09
2023-01-01T00:26:02.314Z,74.64
2023-01-01T00:28:30.058Z,76.16
2023-01-01T00:30:57.610Z,75.62
2023-01-01T00:33:25.196Z,74.99
2023-01-01T00:35:52.933Z,75.97
2023-01-01T00:38:20.496Z,77.19
2023-01-01T00:40:48.204Z,75.48
2023-01-01T00:43:17.093Z,77.65
2023-01-01T00:45:47.826Z,77.96
2023-01-01T00:48:15.586Z,75.52
2023-01-01T00:50:43.139Z,74.49
2023-01-01T00:53:10.734Z,72.49
2023-01-01T00:55:40.338Z,75.49
2023-01-01T00:58:08.099Z,74.89
2023-01-01T01:00:37.349Z,75.30
2023-01-01T01:03:05.564Z,75.53
2023-01-01T01:05:34.168Z,72.19
2023-01-01T01:08:01.902Z,76.53
2023-01-01T01:10:29.712Z,75.29
2023-01-01T01:12:57.269Z,75.04
2023-01-01T01:15:24.968Z,74.13
2023-01-01T01:17:53.921Z,73.80
2023-01-01T01:20:21.473Z,73.73
2023-01-01T01:22:49.149Z,73.09
2023-01-01T01:25:16.957Z,73.36
2023-01-01T01:27:44.491Z,74.51
2023-01-01T01:30:12.800Z,71.01
2023-01-01T01:32:40.343Z,71.93
2023-01-01T01:35:10.492Z,74.95
2023-01-01T01:37:38.220Z,74.15
2023-01-01T01:40:06.920Z,74.28
2023-01-01T01:42:34.439Z,72.16
2023-01-01T01:45:03.701Z,72.16
2023-01-01T01:47:35.609Z,72.26
2023-01-01T01:50:08.130Z,72.72
2023-01-01T01:52:40.049Z,73.86
2023-01-01T01:55:09.606Z,71.23
2023-01-01T01:57:38.268Z,71.18
2023-01-01T02:00:10.857Z,70.88
2023-01-01T02:02:41.482Z,70.37
2023-01-01T02:05:09.736Z,71.70
2023-01-01T02:07:39.156Z,70.98
2023-01-01T02:10:07.349Z,73.17
2023-01-01T02:12:34.927Z,70.40
2023-01-01T02:15:03.574Z,72.92
2023-01-01T02:17:38.772Z,70.93
2023-01-01T02:20:23.116Z,70.12
2023-01-01T02:23:24.197Z,71.11
2023-01-01T02:26:13.012Z,69.97
2023-01-01T02:28:54.184Z,70.26
2023-01-01T02:31:27.045Z,70.31
2023-01-01T02:33:56.415Z,71.65
2023-01-01T02:36:25.213Z,71.62
2023-01-01T02:38:54.569Z,70.11
2023-01-01T02:41:24.690Z,69.94
2023-01-01T02:43:54.384Z,70.16
2023-01-01T02:48:49.824Z,68.78
2023-01-01T02:51:24.003Z,69.43
2023-01-01T02:53:59.376Z,67.96
2023-01-01T02:56:36.192Z,68.46
2023-01-01T02:59:32.611Z,70.22
2023-01-01T03:02:04.939Z,69.99
2023-01-01T03:04:37.897Z,68.91
2023-01-01T03:07:12.614Z,69.90
2023-01-01T03:09:44.978Z,72.00
2023-01-01T03:12:19.912Z,72.11
2023-01-01T03:14:53.065Z,71.19
2023-01-01T03:17:27.269Z,70.39
2023-01-01T03:19:56.561Z,70.41
2023-01-01T03:22:26.974Z,70.63
2023-01-01T03:24:56.436Z,72.98
2023-01-01T03:27:27.019Z,71.02
2023-01-01T03:29:58.362Z,71.21
2023-01-01T03:32:49.478Z,70.79
2023-01-01T03:35:19.723Z,70.47
2023-01-01T03:37:48.151Z,72.01
2023-01-01T03:40:16.307Z,73.96
2023-01-01T03:42:47.247Z,70.46
2023-01-01T03:45:19.738Z,74.49
2023-01-01T03:47:47.690Z,72.77
2023-01-01T03:50:15.993Z,71.79
2023-01-01T03:52:47.557Z,76.16
2023-01-01T03:55:19.391Z,74.57
2023-01-01T03:57:51.892Z,75.09
2023-01-01T04:00:22.660Z,74.00
2023-01-01T04:02:53.835Z,75.23
2023-01-01T04:05:21.778Z,74.42
2023-01-01T04:10:20.449Z,74.39
2023-01-01T04:12:49.693Z,75.30
2023-01-01T04:15:18.398Z,76.26
2023-01-01T04:17:47.692Z,75.60
2023-01-01T04:20:16.279Z,77.75
2023-01-01T04:22:44.263Z,78.01
2023-01-01T04:25:12.869Z,76.71
2023-01-01T04:27:41.145Z,74.10
2023-01-01T04:30:11.826Z,76.71
2023-01-01T04:32:39.641Z,78.04
2023-01-01T04:35:12.148Z,77.68
2023-01-01T04:37:40.261Z,77.28
2023-01-01T04:40:09.650Z,76.62
2023-01-01T04:42:37.631Z,79.00
2023-01-01T04:45:05.879Z,78.39
2023-01-01T04:47:33.645Z,77.69
2023-01-01T04:50:01.396Z,77.17
2023-01-01T04:52:30.342Z,81.56
2023-01-01T04:54:57.874Z,77.74
2023-01-01T04:57:25.458Z,76.46
2023-01-01T04:59:53.050Z,79.96
2023-01-01T05:02:20.738Z,80.15
2023-01-01T05:04:48.576Z,80.14
2023-01-01T05:07:16.256Z,80.53
2023-01-01T05:09:45.156Z,81.38
2023-01-01T05:12:12.884Z,81.42
2023-01-01T05:14:40.669Z,82.33
2023-01-01T05:17:08.396Z,81.81
2023-01-01T05:19:35.968Z,83.54
2023-01-01T05:22:10.251Z,85.01
2023-01-01T05:24:38.457Z,85.35
2023-01-01T05:27:07.552Z,85.01
2023-01-01T05:29:35.189Z,88.44
2023-01-01T05:32:02.804Z,86.75
2023-01-01T05:36:57.037Z,88.20
2023-01-01T05:39:24.758Z,89.52
2023-01-01T05:41:52.405Z,90.72
2023-01-01T05:44:24.607Z,89.14
2023-01-01T05:46:52.151Z,89.50
2023-01-01T05:49:19.715Z,90.95
2023-01-01T05:51:47.455Z,89.97
2023-01-01T05:56:41.646Z,90.51
2023-01-01T05:59:11.016Z,92.26
2023-01-01T06:01:45.452Z,91.93
2023-01-01T06:04:14.437Z,94.87
2023-01-01T06:06:42.128Z,96.00
2023-01-01T06:09:11.249Z,98.78
2023-01-01T06:11:38.969Z,100.00
2023-01-01T06:14:06.935Z,100.00
2023-01-01T06:16:35.309Z,100.00
2023-01-01T06:19:04.838Z,100.00
2023-01-01T06:21:32.587Z,100.00
2023-01-01T06:24:00.904Z,100.00
2023-01-01T06:26:30.138Z,100.00
2023-01-01T06:28:58.131Z,100.00
2023-01-01T06:31:27.452Z,100.00
2023-01-01T06:33:55.516Z,100.00
2023-01-01T06:36:25.964Z,100.00
2023-01-01T06:38:55.808Z,100.00
2023-01-01T06:41:24.883Z,100.00
2023-01-01T06:43:52.631Z,100.00
2023-01-01T06:46:21.791Z,100.00
2023-01-01T06:48:50.277Z,100.00
2023-01-01T06:51:19.241Z,99.41
2023-01-01T06:53:49.026Z,97.12
2023-01-01T06:56:16.663Z,97.54
2023-01-01T06:58:44.552Z,97.49
2023-01-01T07:01:14.313Z,97.03
2023-01-01T07:03:42.970Z,96.02
2023-01-01T07:06:11.573Z,94.26
2023-01-01T07:08:39.299Z,95.51
2023-01-01T07:11:08.288Z,93.99
2023-01-01T07:13:35.928Z,94.72
2023-01-01T07:16:10.187Z,95.43
2023-01-01T07:18:40.123Z,96.22
2023-01-01T07:21:08.997Z,95.04
2023-01-01T07:23:36.735Z,94.83
2023-01-01T07:26:04.347Z,93.55
2023-01-01T07:28:33.418Z,92.91
2023-01-01T07:31:01.030Z,93.63
2023-01-01T07:33:28.569Z,96.62
2023-01-01T07:35:56.196Z,97.19
2023-01-01T07:38:23.984Z,100.00
2023-01-01T07:40:51.560Z,100.00
2023-01-01T07:43:19.092Z,100.00
2023-01-01T07:45:48.124Z,100.00
2023-01-01T07:48:16.421Z,100.00
2023-01-01T07:50:44.716Z,100.00
2023-01-01T07:53:12.673Z,100.00
2023-01-01T07:55:40.337Z,100.00
2023-01-01T07:58:07.945Z,100.00
2023-01-01T08:00:35.582Z,100.00
2023-01-01T08:03:04.900Z,100.00
2023-01-01T08:05:34.143Z,100.00
2023-01-01T08:08:01.847Z,100.00
2023-01-01T08:10:29.708Z,100.00
2023-01-01T08:13:01.040Z,100.00
2023-01-01T08:15:28.792Z,100.00
2023-01-01T08:17:59.763Z,100.00
2023-01-01T08:20:30.012Z,100.00
2023-01-01T08:23:02.967Z,100.00
2023-01-01T08:25:34.166Z,100.00
2023-01-01T08:28:01.686Z,100.00
2023-01-01T08:30:29.413Z,100.00
2023-01-01T08:32:57.185Z,100.00
2023-01-01T08:35:24.904Z,100.00
2023-01-01T08:37:54.048Z,100.00
2023-01-01T08:40:21.747Z,100.00
2023-01-01T08:42:49.316Z,100.00
2023-01-01T08:45:17.075Z,100.00
2023-01-01T08:47:44.913Z,100.00
2023-01-01T08:50:14.426Z,100.00
2023-01-01T08:52:41.945Z,100.00
2023-01-01T08:55:12.004Z,100.00
2023-01-01T08:57:39.539Z,100.00
2023-01-01T09:00:09.730Z,100.00
2023-01-01T09:02:37.447Z,100.00
2023-01-01T09:05:05.751Z,100.00
2023-01-01T09:07:33.307Z,100.00
2023-01-01T09:10:01.023Z,100.00
2023-01-01T09:12:30.094Z,100.00
2023-01-01T09:14:57.670Z,100.00
2023-01-01T09:17:25.252Z,100.00
2023-01-01T09:19:52.941Z,100.00
2023-01-01T09:22:20.519Z,100.00
2023-01-01T09:24:48.073Z,100.00
2023-01-01T09:27:15.753Z,100.00
2023-01-01T09:29:44.810Z,100.00
2023-01-01T09:32:12.545Z,100.00
2023-01-01T09:34:40.117Z,100.00
2023-01-01T09:37:07.823Z,100.00
2023-01-01T09:39:35.597Z,100.00
2023-01-01T09:42:14.668Z,100.00
2023-01-01T09:44:55.721Z,100.00
2023-01-01T09:47:27.036Z,100.00
2023-01-01T09:49:55.977Z,100.00
2023-01-01T09:52:23.815Z,100.00
2023-01-01T09:54:53.781Z,100.00
2023-01-01T09:57:25.089Z,100.00
2023-01-01T09:59:54.449Z,100.00
2023-01-01T10:02:34.047Z,100.00
2023-01-01T10:05:05.503Z,100.00
2023-01-01T10:07:39.411Z,100.00
2023-01-01T10:10:18.762Z,100.00
2023-01-01T10:12:50.775Z,100.00
2023-01-01T10:15:23.124Z,100.00
2023-01-01T10:17:53.354Z,100.00
2023-01-01T10:20:23.190Z,100.00
2023-01-01T10:22:54.551Z,100.00
2023-01-01T10:25:24.348Z,100.00
2023-01-01T10:27:59.208Z,100.00
2023-01-01T10:30:29.829Z,100.00
2023-01-01T10:32:58.202Z,100.00
2023-01-01T10:35:31.196Z,100.00
2023-01-01T10:38:00.124Z,100.00
2023-01-01T10:40:29.508Z,100.00
2023-01-01T10:42:58.305Z,100.00
2023-01-01T10:45:31.867Z,100.00
2023-01-01T10:48:14.777Z,100.00
2023-01-01T10:50:44.687Z,100.00
2023-01-01T10:53:27.856Z,100.00
2023-01-01T10:56:03.753Z,100.00
2023-01-01T10:58:37.883Z,100.00
2023-01-01T11:01:08.408Z,100.00
2023-01-01T11:03:36.359Z,100.00
2023-01-01T11:06:06.279Z,100.00
2023-01-01T11:08:35.789Z,100.00
2023-01-01T11:11:04.318Z,100.00
2023-01-01T11:13:32.462Z,100.00
2023-01-01T11:16:00.454Z,100.00
2023-01-01T11:18:36.036Z,100.00
2023-01-01T11:21:05.800Z,100.00
2023-01-01T11:23:35.183Z,100.00
2023-01-01T11:26:08.220Z,100.00
2023-01-01T11:28:37.171Z,100.00
2023-01-01T11:31:07.726Z,100.00
2023-01-01T11:33:39.239Z,100.00
2023-01-01T11:36:07.979Z,100.00
2023-01-01T11:38:35.457Z,100.00
2023-01-01T11:41:05.458Z,100.00
2023-01-01T11:43:39.342Z,100.00
2023-01-01T11:46:09.404Z,100.00
2023-01-01T11:48:42.622Z,100.00
2023-01-01T11:51:12.522Z,100.00
2023-01-01T11:53:41.991Z,100.00
2023-01-01T11:56:13.966Z,100.00
2023-01-01T11:58:48.172Z,100.00
2023-01-01T12:01:20.865Z,100.00
2023-01-01T12:03:54.023Z,100.00
2023-01-01T12:06:25.609Z,100.00
2023-01-01T12:08:57.570Z,100.00
2023-01-01T12:11:28.115Z,100.00
2023-01-01T12:14:00.576Z,100.00
2023-01-01T12:16:47.425Z,100.00
2023-01-01T12:19:20.042Z,100.00
2023-01-01T12:21:52.767Z,100.00
2023-01-01T12:24:21.283Z,100.00
2023-01-01T12:26:59.021Z,100.00
2023-01-01T12:29:48.834Z,100.00
2023-01-01T12:32:21.736Z,100.00
2023-01-01T12:34:57.297Z,100.00
2023-01-01T12:37:34.907Z,100.00
2023-01-01T12:40:30.420Z,100.00
2023-01-01T12:43:02.584Z,100.00
2023-01-01T12:46:11.691Z,100.00
2023-01-01T12:48:50.179Z,100.00
2023-01-01T12:51:29.943Z,100.00
2023-01-01T12:54:28.335Z,100.00
2023-01-01T12:57:01.870Z,100.00
2023-01-01T12:59:31.524Z,100.00
2023-01-01T13:02:01.631Z,100.00
2023-01-01T13:04:29.463Z,100.00
2023-01-01T13:07:05.565Z,100.00
2023-01-01T13:09:36.022Z,100.00
2023-01-01T13:12:07.201Z,100.00
2023-01-01T13:14:39.293Z,100.00
2023-01-01T13:17:19.932Z,100.00
2023-01-01T13:19:47.749Z,100.00
2023-01-01T13:22:44.097Z,100.00
2023-01-01T13:25:21.437Z,100.00
2023-01-01T13:28:13.438Z,100.00
2023-01-01T13:30:51.251Z,100.00
2023-01-01T13:33:26.004Z,100.00
2023-01-01T13:36:31.559Z,100.00
2023-01-01T13:39:01.033Z,100.00
2023-01-01T13:41:35.391Z,100.00
2023-01-01T13:44:20.191Z,100.00
2023-01-01T13:46:56.872Z,100.00
2023-01-01T13:49:32.222Z,100.00
2023-01-01T13:52:23.750Z,100.00
2023-01-01T13:55:29.948Z,100.00
2023-01-01T13:58:16.021Z,100.00
2023-01-01T14:00:54.626Z,100.00
2023-01-01T14:03:22.689Z,100.00
2023-01-01T14:05:52.028Z,100.00
2023-01-01T14:08:29.484Z,100.00
2023-01-01T14:11:00.784Z,100.00
2023-01-01T14:13:32.402Z,100.00
2023-01-01T14:16:01.334Z,100.00
2023-01-01T14:18:33.843Z,100.00
2023-01-01T14:21:01.588Z,100.00
2023-01-01T14:23:32.744Z,100.00
2023-01-01T14:26:04.795Z,100.00
2023-01-01T14:28:33.466Z,100.00
2023-01-01T14:31:08.704Z,100.00
2023-01-01T14:33:38.990Z,100.00
2023-01-01T14:36:14.839Z,100.00
2023-01-01T14:38:45.439Z,100.00
2023-01-01T14:41:18.676Z,100.00
2023-01-01T14:43:47.533Z,100.00
2023-01-01T14:46:17.354Z,100.00
2023-01-01T14:48:46.348Z,100.00
2023-01-01T14:51:15.953Z,100.00
2023-01-01T14:53:44.381Z,100.00
2023-01-01T14:56:11.960Z,100.00
2023-01-01T14:58:41.833Z,100.00
2023-01-01T15:01:16.558Z,100.00
2023-01-01T15:03:59.756Z,100.00
2023-01-01T15:06:27.514Z,100.00
2023-01-01T15:08:55.150Z,100.00
2023-01-01T15:11:28.463Z,100.00
2023-01-01T15:14:00.356Z,100.00
2023-01-01T15:16:30.232Z,100.00
2023-01-01T15:18:59.695Z,100.00
2023-01-01T15:21:37.325Z,100.00
2023-01-01T15:24:10.192Z,100.00
2023-01-01T15:26:42.434Z,100.00
2023-01-01T15:29:13.121Z,100.00
2023-01-01T15:31:43.488Z,100.00
2023-01-01T15:34:24.208Z,100.00
2023-01-01T15:36:53.485Z,100.00
2023-01-01T15:39:21.900Z,100.00
2023-01-01T15:41:50.864Z,100.00
2023-01-01T15:44:28.320Z,100.00
2023-01-01T15:47:05.899Z,100.00
2023-01-01T15:49:34.443Z,100.00
2023-01-01T15:52:05.490Z,100.00
2023-01-01T15:54:36.211Z,100.00
2023-01-01T15:57:03.992Z,100.00
2023-01-01T15:59:36.823Z,100.00
2023-01-01T16:02:08.785Z,100.00
2023-01-01T16:04:37.489Z,100.00
2023-01-01T16:07:05.125Z,100.00
2023-01-01T16:09:34.289Z,100.00
2023-01-01T16:12:01.941Z,100.00
2023-01-01T16:14:29.637Z,100.00
2023-01-01T16:17:00.825Z,100.00
2023-01-01T16:19:30.296Z,100.00
2023-01-01T16:21:57.860Z,100.00
2023-01-01T16:24:25.655Z,100.00
2023-01-01T16:26:53.664Z,100.00
2023-01-01T16:29:21.315Z,100.00
2023-01-01T16:31:49.205Z,100.00
2023-01-01T16:34:18.389Z,100.00
2023-01-01T16:36:46.327Z,100.00
2023-01-01T16:39:14.046Z,100.00
2023-01-01T16:41:42.600Z,100.00
2023-01-01T16:44:12.436Z,100.00
2023-01-01T16:46:40.290Z,100.00
2023-01-01T16:49:07.868Z,100.00
2023-01-01T16:51:40.620Z,100.00
2023-01-01T16:54:10.918Z,100.00
2023-01-01T16:56:38.688Z,100.00
2023-01-01T16:59:06.408Z,100.00
2023-01-01T17:01:34.238Z,100.00
2023-01-01T17:04:02.144Z,100.00
2023-01-01T17:06:29.866Z,100.00
2023-01-01T17:08:59.774Z,100.00
2023-01-01T17:11:27.500Z,100.00
2023-01-01T17:13:55.212Z,100.00
2023-01-01T17:16:27.912Z,100.00
2023-01-01T17:21:44.613Z,100.00
2023-01-01T17:24:13.972Z,100.00
2023-01-01T17:26:41.791Z,100.00
2023-01-01T17:29:09.609Z,100.00
2023-01-01T17:31:37.732Z,100.00
2023-01-01T17:34:05.559Z,100.00
2023-01-01T17:36:33.250Z,100.00
2023-01-01T17:39:00.982Z,100.00
2023-01-01T17:41:29.890Z,100.00
2023-01-01T17:43:58.019Z,100.00
2023-01-01T17:46:28.216Z,100.00
2023-01-01T17:48:56.547Z,100.00
2023-01-01T17:51:24.492Z,100.00
2023-01-01T17:53:52.183Z,100.00
2023-01-01T17:56:22.301Z,100.00
2023-01-01T17:58:52.849Z,100.00
2023-01-01T18:01:32.196Z,100.00
2023-01-01T18:04:00.795Z,100.00
2023-01-01T18:06:29.113Z,100.00
2023-01-01T18:08:57.390Z,100.00
2023-01-01T18:11:25.339Z,100.00
2023-01-01T18:13:54.443Z,100.00
2023-01-01T18:16:22.284Z,100.00
2023-01-01T18:18:49.879Z,100.00
2023-01-01T18:21:21.917Z,100.00
2023-01-01T18:23:50.820Z,100.00
2023-01-01T18:26:18.963Z,100.00
2023-01-01T18:28:46.779Z,100.00
2023-01-01T18:31:17.125Z,100.00
2023-01-01T18:33:46.885Z,100.00
2023-01-01T18:36:16.661Z,100.00
2023-01-01T18:38:45.826Z,100.00
2023-01-01T18:41:26.284Z,100.00
2023-01-01T18:43:53.877Z,100.00
2023-01-01T18:46:23.432Z,100.00
2023-01-01T18:48:57.039Z,100.00
2023-01-01T18:51:26.512Z,100.00
2023-01-01T18:53:57.063Z,100.00
2023-01-01T18:56:25.025Z,100.00
2023-01-01T18:58:52.869Z,100.00
2023-01-01T19:01:23.479Z,100.00
2023-01-01T19:03:52.849Z,100.00
2023-01-01T19:06:27.259Z,100.00
2023-01-01T19:09:00.859Z,100.00
2023-01-01T19:11:28.559Z,100.00
2023-01-01T19:14:02.480Z,100.00
2023-01-01T19:16:33.090Z,100.00
2023-01-01T19:19:09.861Z,100.00
2023-01-01T19:21:37.595Z,100.00
2023-01-01T19:24:13.028Z,100.00
2023-01-01T19:26:40.981Z,100.00
2023-01-01T19:29:15.280Z,100.00
2023-01-01T19:31:44.478Z,100.00
2023-01-01T19:34:12.178Z,100.00
2023-01-01T19:36:39.966Z,100.00
2023-01-01T19:39:08.189Z,100.00
2023-01-01T19:41:36.172Z,100.00
2023-01-01T19:44:08.623Z,100.00
2023-01-01T19:46:37.629Z,100.00
2023-01-01T19:49:06.581Z,100.00
2023-01-01T19:51:34.179Z,100.00
2023-01-01T19:54:01.762Z,100.00
2023-01-01T19:56:29.492Z,100.00
2023-01-01T19:58:57.073Z,100.00
2023-01-01T20:01:24.738Z,100.00
2023-01-01T20:03:54.725Z,100.00
2023-01-01T20:06:25.003Z,100.00
2023-01-01T20:08:52.887Z,100.00
2023-01-01T20:11:20.557Z,100.00
2023-01-01T20:13:48.306Z,100.00
2023-01-01T20:16:16.156Z,100.00
2023-01-01T20:18:43.995Z,100.00
2023-01-01T20:21:29.047Z,100.00
2023-01-01T20:23:57.890Z,100.00
2023-01-01T20:26:26.047Z,100.00
2023-01-01T20:29:11.451Z,100.00
2023-01-01T20:31:39.279Z,100.00
2023-01-01T20:34:06.930Z,100.00
2023-01-01T20:36:52.173Z,100.00
2023-01-01T20:39:24.544Z,100.00
2023-01-01T20:41:52.291Z,100.00
2023-01-01T20:44:20.166Z,100.00
2023-01-01T20:46:48.377Z,100.00
2023-01-01T20:49:17.151Z,100.00
2023-01-01T20:51:44.981Z,100.00
2023-01-01T20:54:12.734Z,100.00
2023-01-01T20:56:41.778Z,100.00
2023-01-01T20:59:33.568Z,100.00
2023-01-01T21:01:57.075Z,100.00
2023-01-01T21:04:24.725Z,100.00
2023-01-01T21:06:52.647Z,100.00
2023-01-01T21:09:20.428Z,100.00
2023-01-01T21:11:49.425Z,100.00
2023-01-01T21:14:17.150Z,100.00
2023-01-01T21:16:46.108Z,100.00
2023-01-01T21:19:13.764Z,100.00
2023-01-01T21:21:45.131Z,100.00
2023-01-01T21:24:20.870Z,100.00
2023-01-01T21:26:51.383Z,100.00
2023-01-01T21:29:21.260Z,100.00
2023-01-01T21:31:52.095Z,100.00
2023-01-01T21:34:24.666Z,100.00
2023-01-01T21:36:52.204Z,100.00
2023-01-01T21:39:24.683Z,100.00
2023-01-01T21:41:53.752Z,100.00
2023-01-01T21:44:21.848Z,100.00
2023-01-01T21:46:54.242Z,100.00
2023-01-01T21:49:31.793Z,100.00
2023-01-01T21:52:00.096Z,100.00
2023-01-01T21:54:31.651Z,100.00
2023-01-01T21:57:01.963Z,100.00
2023-01-01T21:59:37.274Z,100.00
2023-01-01T22:02:39.062Z,100.00
2023-01-01T22:05:30.782Z,100.00
2023-01-01T22:07:59.434Z,100.00
2023-01-01T22:10:35.935Z,100.00
2023-01-01T22:13:15.116Z,100.00
2023-01-01T22:15:43.089Z,100.00
2023-01-01T22:18:21.001Z,100.00
2023-01-01T22:20:49.189Z,100.00
2023-01-01T22:23:38.735Z,100.00
2023-01-01T22:26:16.462Z,100.00
2023-01-01T22:28:46.886Z,100.00
2023-01-01T22:31:19.595Z,100.00
2023-01-01T22:33:48.107Z,100.00
2023-01-01T22:36:17.510Z,100.00
2023-01-01T22:38:45.466Z,100.00
2023-01-01T22:41:13.516Z,100.00
2023-01-01T22:43:43.219Z,100.00
2023-01-01T22:46:21.552Z,100.00
2023-01-01T22:48:57.257Z,100.00
2023-01-01T22:51:28.231Z,100.00
2023-01-01T22:53:55.932Z,100.00
2023-01-01T22:56:23.638Z,100.00
2023-01-01T22:58:56.682Z,100.00
2023-01-01T23:01:26.286Z,100.00
2023-01-01T23:03:54.232Z,100.00
2023-01-01T23:06:23.046Z,100.00
2023-01-01T23:08:50.842Z,100.00
2023-01-01T23:11:18.895Z,100.00
2023-01-01T23:14:07.371Z,100.00
2023-01-01T23:16:36.713Z,100.00
2023-01-01T23:19:05.194Z,100.00
2023-01-01T23:21:33.608Z,100.00
2023-01-01T23:24:02.759Z,100.00
2023-01-01T23:26:30.653Z,100.00
2023-01-01T23:28:58.386Z,100.00
2023-01-01T23:31:27.797Z,100.00
2023-01-01T23:33:58.253Z,100.00
2023-01-01T23:36:26.522Z,100.00
2023-01-01T23:38:54.432Z,100.00
2023-01-01T23:41:22.551Z,100.00
2023-01-01T23:43:50.539Z,100.00
2023-01-01T23:46:19.076Z,100.00
2023-01-01T23:48:47.377Z,100.00
2023-01-01T23:51:17.464Z,100.00
2023-01-01T23:53:45.063Z,100.00
2023-01-01T23:56:15.708Z,100.00
2023-01-01T23:58:43.468Z,100.00
